createdAt,value
2023-03-04T00:01:28.216Z,8.07
2023-03-04T00:03:57.668Z,8.15
2023-03-04T00:06:27.229Z,9.18
2023-03-04T00:08:56.629Z,8.60
2023-03-04T00:11:27.436Z,9.02
2023-03-04T00:13:58.334Z,8.35
2023-03-04T00:16:28.840Z,8.77
2023-03-04T00:18:58.928Z,7.78
2023-03-04T00:21:28.533Z,7.03
2023-03-04T00:23:57.939Z,6.70
2023-03-04T00:26:28.731Z,7.43
2023-03-04T00:28:58.051Z,7.32
2023-03-04T00:31:27.678Z,7.20
2023-03-04T00:33:57.072Z,6.75
2023-03-04T00:36:26.706Z,8.13
2023-03-04T00:38:56.017Z,7.05
2023-03-04T00:41:25.613Z,7.00
2023-03-04T00:43:56.608Z,8.45
2023-03-04T00:46:26.073Z,8.63
2023-03-04T00:50:31.208Z,6.65
2023-03-04T00:53:00.505Z,5.72
2023-03-04T00:55:29.913Z,6.60
2023-03-04T00:57:59.411Z,6.05
2023-03-04T01:00:28.905Z,5.90
2023-03-04T01:02:58.325Z,5.90
2023-03-04T01:05:27.768Z,5.20
2023-03-04T01:07:58.626Z,5.80
2023-03-04T01:10:28.172Z,5.40
2023-03-04T01:12:57.664Z,5.05
2023-03-04T01:15:27.177Z,5.45
2023-03-04T01:17:57.299Z,6.05
2023-03-04T01:20:27.738Z,4.88
2023-03-04T01:22:58.585Z,5.13
2023-03-04T01:25:28.108Z,5.13
2023-03-04T01:27:57.604Z,5.03
2023-03-04T01:30:27.004Z,5.30
2023-03-04T01:32:56.524Z,5.95
2023-03-04T01:35:25.843Z,5.28
2023-03-04T01:37:55.272Z,6.15
2023-03-04T01:40:26.390Z,8.27
2023-03-04T01:42:55.812Z,5.95
2023-03-04T01:45:25.188Z,4.65
2023-03-04T01:47:55.231Z,5.20
2023-03-04T01:50:30.293Z,6.00
2023-03-04T01:52:59.777Z,4.78
2023-03-04T01:55:33.969Z,5.93
2023-03-04T01:58:03.247Z,5.72
2023-03-04T02:00:35.383Z,5.78
2023-03-04T02:03:11.641Z,6.88
2023-03-04T02:05:43.847Z,5.47
2023-03-04T02:08:15.210Z,6.32
2023-03-04T02:10:47.232Z,7.63
2023-03-04T02:13:17.484Z,7.70
2023-03-04T02:15:48.505Z,6.68
2023-03-04T02:18:20.912Z,7.60
2023-03-04T02:21:04.995Z,6.25
2023-03-04T02:23:42.711Z,5.38
2023-03-04T02:26:17.389Z,7.30
2023-03-04T02:28:47.468Z,7.68
2023-03-04T02:31:27.194Z,7.10
2023-03-04T02:34:00.060Z,4.97
2023-03-04T02:39:06.136Z,3.45
2023-03-04T02:41:37.573Z,5.07
2023-03-04T02:44:19.010Z,4.55
2023-03-04T02:46:49.039Z,3.88
2023-03-04T02:49:19.276Z,4.28
2023-03-04T02:51:51.897Z,4.18
2023-03-04T02:54:24.903Z,5.75
2023-03-04T02:57:00.506Z,7.03
2023-03-04T02:59:30.201Z,5.00
2023-03-04T03:01:59.946Z,5.05
2023-03-04T03:04:30.180Z,4.22
2023-03-04T03:06:59.652Z,3.72
2023-03-04T03:09:29.096Z,5.22
2023-03-04T03:12:00.050Z,3.85
2023-03-04T03:14:29.636Z,3.30
2023-03-04T03:16:59.028Z,4.47
2023-03-04T03:19:28.549Z,6.07
2023-03-04T03:21:57.872Z,8.48
2023-03-04T03:24:27.380Z,10.45
2023-03-04T03:26:56.761Z,10.48
2023-03-04T03:29:27.828Z,11.07
2023-03-04T03:31:57.416Z,9.68
2023-03-04T03:34:26.912Z,9.07
2023-03-04T03:36:56.477Z,10.73
2023-03-04T03:39:26.015Z,17.20
2023-03-04T03:41:55.458Z,29.63
2023-03-04T03:44:26.304Z,14.65
2023-03-04T03:46:55.762Z,8.93
2023-03-04T03:51:31.026Z,7.63
2023-03-04T03:54:00.432Z,7.97
2023-03-04T03:56:29.760Z,7.80
2023-03-04T03:59:00.129Z,6.53
2023-03-04T04:01:29.799Z,6.78
2023-03-04T04:03:59.271Z,6.35
2023-03-04T04:06:33.029Z,3.58
2023-03-04T04:09:02.530Z,4.43
2023-03-04T04:11:32.448Z,7.13
2023-03-04T04:14:01.837Z,6.63
2023-03-04T04:16:31.284Z,11.68
2023-03-04T04:19:00.736Z,8.50
2023-03-04T04:21:31.766Z,7.32
2023-03-04T04:24:01.072Z,11.10
2023-03-04T04:26:30.471Z,14.63
2023-03-04T04:28:59.755Z,12.02
2023-03-04T04:31:29.160Z,11.73
2023-03-04T04:33:58.490Z,12.30
2023-03-04T04:36:28.330Z,13.45
2023-03-04T04:38:59.149Z,12.02
2023-03-04T04:41:32.028Z,13.35
2023-03-04T04:46:30.267Z,9.80
2023-03-04T04:48:59.990Z,9.65
2023-03-04T04:51:30.192Z,6.80
2023-03-04T04:54:02.104Z,9.35
2023-03-04T04:56:32.027Z,7.57
2023-03-04T04:59:04.616Z,12.25
2023-03-04T05:01:34.543Z,10.52
2023-03-04T05:04:04.166Z,7.50
2023-03-04T05:06:33.507Z,7.63
2023-03-04T05:09:04.709Z,6.15
2023-03-04T05:11:34.380Z,28.50
2023-03-04T05:14:04.037Z,12.10
2023-03-04T05:16:33.653Z,7.90
2023-03-04T05:19:02.966Z,3.13
2023-03-04T05:21:32.408Z,4.50
2023-03-04T05:24:03.349Z,4.50
2023-03-04T05:26:32.894Z,9.30
2023-03-04T05:29:02.445Z,10.23
2023-03-04T05:31:32.059Z,8.20
2023-03-04T05:34:01.471Z,8.95
2023-03-04T05:36:30.852Z,6.93
2023-03-04T05:39:00.305Z,8.00
2023-03-04T05:41:31.625Z,8.55
2023-03-04T05:44:01.055Z,9.00
2023-03-04T05:46:33.212Z,7.20
2023-03-04T05:49:03.049Z,10.68
2023-03-04T05:51:32.482Z,13.95
2023-03-04T05:54:01.839Z,7.72
2023-03-04T05:56:33.737Z,5.95
2023-03-04T05:59:03.175Z,4.93
2023-03-04T06:01:32.749Z,5.57
2023-03-04T06:04:02.125Z,5.85
2023-03-04T06:06:31.592Z,5.90
2023-03-04T06:09:01.398Z,5.65
2023-03-04T06:11:32.713Z,6.97
2023-03-04T06:14:03.210Z,8.48
2023-03-04T06:16:32.725Z,8.23
2023-03-04T06:19:02.154Z,7.63
2023-03-04T06:21:31.598Z,7.47
2023-03-04T06:24:00.935Z,10.93
2023-03-04T06:26:31.816Z,11.35
2023-03-04T06:29:01.125Z,11.10
2023-03-04T06:31:30.662Z,11.93
2023-03-04T06:34:00.133Z,12.95
2023-03-04T06:36:32.332Z,14.07
2023-03-04T06:39:03.478Z,13.88
2023-03-04T06:41:35.005Z,13.93
2023-03-04T06:44:04.457Z,15.95
2023-03-04T06:46:36.169Z,14.93
2023-03-04T06:51:31.244Z,12.05
2023-03-04T06:54:00.602Z,11.68
2023-03-04T06:56:30.480Z,10.50
2023-03-04T06:59:00.254Z,11.15
2023-03-04T07:01:31.052Z,10.90
2023-03-04T07:04:01.030Z,12.32
2023-03-04T07:06:32.052Z,15.93
2023-03-04T07:09:01.554Z,11.50
2023-03-04T07:11:30.937Z,7.85
2023-03-04T07:14:00.304Z,8.88
2023-03-04T07:16:29.952Z,6.60
2023-03-04T07:18:59.482Z,7.03
2023-03-04T07:21:30.451Z,19.38
2023-03-04T07:24:00.128Z,12.40
2023-03-04T07:26:31.333Z,12.00
2023-03-04T07:29:00.815Z,7.82
2023-03-04T07:31:33.330Z,6.25
2023-03-04T07:34:06.374Z,5.47
2023-03-04T07:36:39.260Z,2.80
2023-03-04T07:41:38.634Z,9.02
2023-03-04T07:44:12.756Z,6.43
2023-03-04T07:46:42.980Z,5.32
2023-03-04T07:49:14.861Z,10.18
2023-03-04T07:51:45.544Z,7.90
2023-03-04T07:54:15.045Z,9.13
2023-03-04T07:56:44.576Z,9.77
2023-03-04T07:59:14.130Z,7.25
2023-03-04T08:01:45.337Z,7.80
2023-03-04T08:04:15.131Z,7.10
2023-03-04T08:06:47.114Z,7.90
2023-03-04T08:09:16.511Z,8.63
2023-03-04T08:11:46.090Z,10.45
2023-03-04T08:14:15.800Z,10.30
2023-03-04T08:16:45.333Z,10.25
2023-03-04T08:19:14.986Z,10.80
2023-03-04T08:21:45.792Z,10.85
2023-03-04T08:24:15.470Z,9.63
2023-03-04T08:26:47.258Z,7.25
2023-03-04T08:29:20.772Z,6.05
2023-03-04T08:31:50.926Z,6.40
2023-03-04T08:34:22.213Z,4.72
2023-03-04T08:36:53.075Z,5.38
2023-03-04T08:39:23.234Z,5.45
2023-03-04T08:41:52.680Z,5.50
2023-03-04T08:44:22.104Z,5.18
2023-03-04T08:46:51.431Z,4.55
2023-03-04T08:49:20.894Z,8.30
2023-03-04T08:51:51.932Z,10.32
2023-03-04T08:54:21.344Z,8.27
2023-03-04T08:56:50.846Z,7.90
2023-03-04T08:59:20.156Z,8.15
2023-03-04T09:01:49.759Z,7.63
2023-03-04T09:04:19.136Z,8.13
2023-03-04T09:06:48.533Z,7.63
2023-03-04T09:09:19.320Z,9.05
2023-03-04T09:11:48.694Z,7.72
2023-03-04T09:14:18.012Z,8.20
2023-03-04T09:16:47.678Z,7.70
2023-03-04T09:19:17.145Z,5.72
2023-03-04T09:21:46.530Z,4.82
2023-03-04T09:24:17.749Z,5.15
2023-03-04T09:26:47.350Z,5.45
2023-03-04T09:29:16.772Z,5.68
2023-03-04T09:31:46.136Z,6.22
2023-03-04T09:34:15.852Z,6.10
2023-03-04T09:36:45.611Z,6.82
2023-03-04T09:39:15.417Z,5.97
2023-03-04T09:41:48.458Z,5.57
2023-03-04T09:44:25.013Z,6.55
2023-03-04T09:46:55.403Z,7.63
2023-03-04T09:51:48.813Z,5.68
2023-03-04T09:54:33.762Z,6.55
2023-03-04T09:57:21.294Z,6.97
2023-03-04T10:00:05.549Z,7.93
2023-03-04T10:02:47.033Z,5.43
2023-03-04T10:05:22.294Z,5.68
2023-03-04T10:08:01.121Z,4.93
2023-03-04T10:10:38.314Z,5.03
2023-03-04T10:13:15.966Z,5.68
2023-03-04T10:15:51.381Z,6.35
2023-03-04T10:18:25.888Z,6.22
2023-03-04T10:21:03.059Z,9.90
2023-03-04T10:23:35.391Z,11.48
2023-03-04T10:26:16.750Z,10.20
2023-03-04T10:28:46.457Z,10.30
2023-03-04T10:31:24.073Z,11.95
2023-03-04T10:33:53.556Z,10.40
2023-03-04T10:36:45.956Z,10.32
2023-03-04T10:39:23.378Z,9.13
2023-03-04T10:42:03.213Z,8.80
2023-03-04T10:44:34.880Z,8.63
2023-03-04T10:47:04.425Z,9.25
2023-03-04T10:49:34.538Z,9.27
2023-03-04T10:52:15.773Z,8.15
2023-03-04T10:54:51.615Z,7.85
2023-03-04T10:57:24.932Z,8.18
2023-03-04T10:59:59.418Z,8.20
2023-03-04T11:02:33.921Z,6.93
2023-03-04T11:05:22.845Z,6.65
2023-03-04T11:07:56.967Z,6.10
2023-03-04T11:10:33.399Z,5.97
2023-03-04T11:13:10.372Z,7.30
2023-03-04T11:15:54.521Z,5.50
2023-03-04T11:18:35.293Z,5.20
2023-03-04T11:21:05.053Z,5.50
2023-03-04T11:23:43.281Z,6.50
2023-03-04T11:26:20.078Z,7.50
2023-03-04T11:28:55.592Z,7.28
2023-03-04T11:31:33.923Z,7.50
2023-03-04T11:34:13.510Z,6.30
2023-03-04T11:36:58.563Z,6.57
2023-03-04T11:39:36.411Z,7.72
2023-03-04T11:42:18.032Z,7.70
2023-03-04T11:44:47.521Z,6.05
2023-03-04T11:47:45.743Z,5.55
2023-03-04T11:50:32.202Z,4.82
2023-03-04T11:53:28.280Z,5.85
2023-03-04T11:56:26.449Z,7.20
2023-03-04T11:59:46.436Z,6.05
2023-03-04T12:02:22.656Z,7.25
2023-03-04T12:05:26.335Z,7.20
2023-03-04T12:08:28.754Z,7.85
2023-03-04T12:11:06.614Z,8.85
2023-03-04T12:13:54.121Z,9.20
2023-03-04T12:16:45.150Z,7.88
2023-03-04T12:19:33.491Z,10.35
2023-03-04T12:22:26.998Z,11.00
2023-03-04T12:25:33.474Z,9.48
2023-03-04T12:28:20.697Z,10.77
2023-03-04T12:31:10.166Z,9.80
2023-03-04T12:33:57.391Z,9.20
2023-03-04T12:36:36.599Z,8.60
2023-03-04T12:39:25.809Z,10.40
2023-03-04T12:42:07.553Z,10.88
2023-03-04T12:44:47.387Z,11.82
2023-03-04T12:47:33.011Z,11.32
2023-03-04T12:51:41.846Z,13.25
2023-03-04T12:54:27.150Z,11.32
2023-03-04T12:56:59.771Z,10.32
2023-03-04T12:59:35.631Z,11.23
2023-03-04T13:02:39.079Z,11.43
2023-03-04T13:05:37.046Z,9.43
2023-03-04T13:08:22.609Z,7.13
2023-03-04T13:10:54.808Z,8.95
2023-03-04T13:13:41.258Z,6.82
2023-03-04T13:16:42.020Z,7.95
2023-03-04T13:19:46.345Z,5.85
2023-03-04T13:22:57.231Z,5.63
2023-03-04T13:25:42.506Z,4.05
2023-03-04T13:28:29.032Z,5.30
2023-03-04T13:31:34.169Z,5.60
2023-03-04T13:34:05.942Z,4.35
2023-03-04T13:37:00.633Z,5.85
2023-03-04T13:39:37.653Z,4.20
2023-03-04T13:42:42.685Z,3.25
2023-03-04T13:45:36.252Z,3.95
2023-03-04T13:48:22.998Z,4.00
2023-03-04T13:50:53.973Z,4.35
2023-03-04T13:53:50.116Z,3.55
2023-03-04T13:56:34.356Z,2.42
2023-03-04T13:59:33.992Z,2.80
2023-03-04T14:02:15.152Z,3.63
2023-03-04T14:04:48.520Z,4.38
2023-03-04T14:07:26.340Z,6.05
2023-03-04T14:10:05.067Z,7.00
2023-03-04T14:12:37.648Z,7.90
2023-03-04T14:15:22.875Z,7.63
2023-03-04T14:17:55.467Z,9.38
2023-03-04T14:20:28.773Z,10.23
2023-03-04T14:22:59.384Z,11.50
2023-03-04T14:25:30.903Z,12.57
2023-03-04T14:28:12.879Z,12.57
2023-03-04T14:30:44.874Z,9.93
2023-03-04T14:33:21.281Z,7.13
2023-03-04T14:35:52.825Z,10.00
2023-03-04T14:38:31.123Z,8.52
2023-03-04T14:41:06.707Z,10.43
2023-03-04T14:43:43.652Z,10.45
2023-03-04T14:46:19.071Z,10.63
2023-03-04T14:48:53.939Z,10.73
2023-03-04T14:51:45.017Z,14.23
2023-03-04T14:54:37.848Z,14.38
2023-03-04T14:57:28.096Z,11.55
2023-03-04T14:59:57.902Z,11.63
2023-03-04T15:02:33.415Z,11.60
2023-03-04T15:05:17.272Z,13.50
2023-03-04T15:07:54.720Z,18.30
2023-03-04T15:10:27.446Z,13.13
2023-03-04T15:15:42.249Z,11.52
2023-03-04T15:18:26.678Z,10.10
2023-03-04T15:21:02.438Z,14.52
2023-03-04T15:23:34.019Z,11.00
2023-03-04T15:26:06.283Z,7.85
2023-03-04T15:28:38.779Z,7.25
2023-03-04T15:31:09.170Z,6.45
2023-03-04T15:33:40.033Z,6.32
2023-03-04T15:36:15.485Z,24.55
2023-03-04T15:38:48.939Z,14.30
2023-03-04T15:41:24.460Z,8.60
2023-03-04T15:43:54.899Z,8.65
2023-03-04T15:46:24.559Z,7.30
2023-03-04T15:51:31.274Z,5.95
2023-03-04T15:54:02.454Z,5.07
2023-03-04T15:56:33.962Z,5.30
2023-03-04T15:59:08.532Z,5.50
2023-03-04T16:01:37.887Z,6.50
2023-03-04T16:04:07.687Z,6.45
2023-03-04T16:06:38.491Z,6.28
2023-03-04T16:09:10.308Z,5.95
2023-03-04T16:11:45.708Z,4.13
2023-03-04T16:14:16.545Z,5.28
2023-03-04T16:16:47.164Z,5.65
2023-03-04T16:19:16.951Z,5.32
2023-03-04T16:21:48.736Z,4.63
2023-03-04T16:24:20.257Z,4.50
2023-03-04T16:26:50.320Z,4.88
2023-03-04T16:29:19.657Z,5.30
2023-03-04T16:31:49.066Z,5.40
2023-03-04T16:34:18.549Z,5.35
2023-03-04T16:36:49.490Z,5.40
2023-03-04T16:39:25.535Z,6.43
2023-03-04T16:41:55.458Z,5.22
2023-03-04T16:44:24.804Z,5.30
2023-03-04T16:46:54.211Z,5.15
2023-03-04T16:49:25.037Z,6.30
2023-03-04T16:51:55.951Z,4.28
2023-03-04T16:54:32.037Z,6.90
2023-03-04T16:57:02.201Z,3.78
2023-03-04T16:59:32.022Z,5.32
2023-03-04T17:02:01.591Z,10.73
2023-03-04T17:04:31.633Z,9.20
2023-03-04T17:07:02.482Z,8.68
2023-03-04T17:09:31.899Z,7.90
2023-03-04T17:12:01.206Z,5.90
2023-03-04T17:14:30.692Z,26.67
2023-03-04T17:17:00.119Z,9.20
2023-03-04T17:19:29.481Z,7.00
2023-03-04T17:22:01.739Z,6.15
2023-03-04T17:24:31.780Z,6.55
2023-03-04T17:27:01.232Z,5.40
2023-03-04T17:29:30.640Z,8.02
2023-03-04T17:32:00.312Z,13.02
2023-03-04T17:34:31.419Z,7.47
2023-03-04T17:37:02.492Z,4.32
2023-03-04T17:39:31.908Z,4.78
2023-03-04T17:42:01.322Z,3.97
2023-03-04T17:44:30.767Z,3.95
2023-03-04T17:47:00.451Z,3.22
2023-03-04T17:49:29.947Z,2.95
2023-03-04T17:52:00.754Z,4.50
2023-03-04T17:54:30.270Z,3.55
2023-03-04T17:56:59.710Z,4.18
2023-03-04T17:59:29.447Z,2.85
2023-03-04T18:01:58.955Z,4.15
2023-03-04T18:04:28.500Z,11.68
2023-03-04T18:06:57.901Z,11.98
2023-03-04T18:09:28.701Z,7.00
2023-03-04T18:11:58.088Z,3.38
2023-03-04T18:14:27.534Z,4.13
2023-03-04T18:16:56.995Z,3.50
2023-03-04T18:19:26.412Z,3.28
2023-03-04T18:21:56.012Z,3.40
2023-03-04T18:24:25.450Z,3.55
2023-03-04T18:26:57.128Z,3.85
2023-03-04T18:29:27.525Z,3.97
2023-03-04T18:31:57.134Z,5.22
2023-03-04T18:34:26.654Z,6.90
2023-03-04T18:36:56.197Z,6.88
2023-03-04T18:39:25.572Z,8.30
2023-03-04T18:41:56.480Z,6.82
2023-03-04T18:44:25.894Z,6.68
2023-03-04T18:46:59.082Z,5.50
2023-03-04T18:51:30.976Z,6.30
2023-03-04T18:54:00.794Z,6.25
2023-03-04T18:56:38.882Z,5.82
2023-03-04T18:59:12.234Z,5.63
2023-03-04T19:01:41.590Z,4.60
2023-03-04T19:04:10.994Z,5.22
2023-03-04T19:06:42.156Z,5.00
2023-03-04T19:09:11.621Z,5.00
2023-03-04T19:11:40.882Z,5.88
2023-03-04T19:14:11.854Z,6.15
2023-03-04T19:16:41.722Z,7.95
2023-03-04T19:19:11.013Z,10.10
2023-03-04T19:21:42.156Z,11.73
2023-03-04T19:24:11.450Z,16.35
2023-03-04T19:26:41.263Z,12.75
2023-03-04T19:29:10.686Z,9.38
2023-03-04T19:31:41.550Z,27.05
2023-03-04T19:34:11.216Z,16.73
2023-03-04T19:36:42.014Z,14.30
2023-03-04T19:39:14.381Z,14.27
2023-03-04T19:41:44.336Z,12.52
2023-03-04T19:44:13.891Z,10.23
2023-03-04T19:46:43.411Z,9.48
2023-03-04T19:49:12.881Z,6.53
2023-03-04T19:51:44.052Z,6.95
2023-03-04T19:54:13.601Z,6.78
2023-03-04T19:56:43.051Z,6.25
2023-03-04T19:59:12.682Z,6.95
2023-03-04T20:01:45.830Z,7.28
2023-03-04T20:04:18.390Z,6.25
2023-03-04T20:06:51.691Z,5.18
2023-03-04T20:09:22.895Z,6.63
2023-03-04T20:11:58.900Z,6.93
2023-03-04T20:14:29.849Z,8.15
2023-03-04T20:17:01.670Z,10.48
2023-03-04T20:19:32.008Z,9.45
2023-03-04T20:22:03.085Z,11.15
2023-03-04T20:24:32.457Z,9.20
2023-03-04T20:27:01.960Z,7.63
2023-03-04T20:29:31.458Z,7.28
2023-03-04T20:32:01.635Z,7.85
2023-03-04T20:34:31.110Z,6.30
2023-03-04T20:37:01.836Z,7.95
2023-03-04T20:39:31.302Z,5.15
2023-03-04T20:42:01.405Z,13.18
2023-03-04T20:44:30.783Z,12.60
2023-03-04T20:47:00.271Z,8.13
2023-03-04T20:49:31.156Z,6.75
2023-03-04T20:52:06.687Z,6.00
2023-03-04T20:54:37.494Z,5.47
2023-03-04T20:57:10.899Z,7.10
2023-03-04T20:59:42.169Z,6.63
2023-03-04T21:02:17.249Z,6.95
2023-03-04T21:04:46.668Z,7.10
2023-03-04T21:07:17.622Z,7.10
2023-03-04T21:09:47.430Z,8.55
2023-03-04T21:12:16.903Z,6.72
2023-03-04T21:14:46.355Z,7.07
2023-03-04T21:17:15.744Z,10.00
2023-03-04T21:19:45.568Z,11.30
2023-03-04T21:22:20.488Z,9.27
2023-03-04T21:24:49.998Z,8.63
2023-03-04T21:27:19.316Z,8.68
2023-03-04T21:29:49.591Z,7.72
2023-03-04T21:32:25.734Z,6.43
2023-03-04T21:34:56.756Z,6.93
2023-03-04T21:37:27.813Z,6.53
2023-03-04T21:39:58.318Z,8.90
2023-03-04T21:42:27.766Z,10.50
2023-03-04T21:44:57.135Z,7.75
2023-03-04T21:47:26.550Z,7.80
2023-03-04T21:51:30.991Z,7.07
2023-03-04T21:54:00.387Z,7.88
2023-03-04T21:56:29.975Z,6.72
2023-03-04T21:59:01.860Z,5.75
2023-03-04T22:01:31.275Z,6.78
2023-03-04T22:04:00.750Z,7.35
2023-03-04T22:06:34.619Z,6.07
2023-03-04T22:09:05.646Z,5.20
2023-03-04T22:11:35.219Z,6.22
2023-03-04T22:14:05.768Z,6.22
2023-03-04T22:16:49.032Z,6.03
2023-03-04T22:19:23.861Z,4.85
2023-03-04T22:21:55.472Z,4.90
2023-03-04T22:24:25.246Z,5.43
2023-03-04T22:26:56.996Z,5.15
2023-03-04T22:29:26.311Z,4.82
2023-03-04T22:31:55.849Z,4.13
2023-03-04T22:34:25.261Z,4.78
2023-03-04T22:36:56.683Z,4.85
2023-03-04T22:39:26.081Z,4.53
2023-03-04T22:41:55.625Z,4.60
2023-03-04T22:44:24.959Z,4.80
2023-03-04T22:46:54.559Z,4.88
2023-03-04T22:49:24.015Z,4.32
2023-03-04T22:51:53.570Z,4.18
2023-03-04T22:54:24.429Z,5.13
2023-03-04T22:56:53.814Z,3.55
2023-03-04T22:59:23.086Z,4.85
2023-03-04T23:01:52.432Z,4.57
2023-03-04T23:04:22.032Z,4.40
2023-03-04T23:06:51.554Z,3.95
2023-03-04T23:09:22.345Z,4.18
2023-03-04T23:11:51.601Z,3.70
2023-03-04T23:14:24.077Z,3.75
2023-03-04T23:16:53.561Z,4.15
2023-03-04T23:19:22.866Z,4.15
2023-03-04T23:21:52.161Z,3.67
2023-03-04T23:24:24.807Z,3.95
2023-03-04T23:26:54.094Z,4.53
2023-03-04T23:29:23.455Z,4.10
2023-03-04T23:31:52.850Z,4.65
2023-03-04T23:34:22.916Z,4.40
2023-03-04T23:36:52.296Z,4.22
2023-03-04T23:39:23.509Z,4.40
2023-03-04T23:41:52.806Z,5.07
2023-03-04T23:44:22.163Z,5.25
2023-03-04T23:46:52.016Z,4.53
2023-03-04T23:49:21.550Z,6.40
2023-03-04T23:51:50.867Z,6.32
2023-03-04T23:54:20.250Z,4.25
2023-03-04T23:56:51.133Z,4.97
2023-03-04T23:59:20.448Z,4.60
